Time;durP1;ratioP1;P1;durP2;ratioP2;P2;SDS_P1;SDS_P2;PMS_P1;PMS_P2;Temp;Humidity;BMP_temperature;BMP_pressure;BME280_temperature;BME280_humidity;BME280_pressure;Samples;Min_cycle;Max_cycle;Signal;HPM_P1;HPM_P2
2022/05/15 00:02:45;;;;;;;1.45;0.30;;;8.10;99.90;;;;;;5024252;28;20427;-82
2022/05/15 00:05:12;;;;;;;0.00;0.00;;;8.10;99.90;;;;;;5023884;28;20072;-82
2022/05/15 00:07:37;;;;;;;0.00;0.00;;;8.10;99.90;;;;;;5023170;28;20399;-82
2022/05/15 00:10:05;;;;;;;0.85;0.55;;;8.50;99.90;;;;;;5025508;28;20037;-82
2022/05/15 00:12:31;;;;;;;0.00;0.00;;;8.10;99.90;;;;;;5009592;28;20050;-82
2022/05/15 00:14:57;;;;;;;0.13;0.13;;;8.10;99.90;;;;;;5023687;28;20480;-82
2022/05/15 00:17:22;;;;;;;0.68;0.68;;;8.10;99.90;;;;;;5010128;28;20045;-82
2022/05/15 00:19:48;;;;;;;0.10;0.10;;;8.00;99.90;;;;;;4991080;28;20053;-81
2022/05/15 00:22:15;;;;;;;0.10;0.10;;;8.00;99.90;;;;;;5006902;28;20041;-81
2022/05/15 00:24:41;;;;;;;0.35;0.35;;;7.90;99.90;;;;;;5037334;28;20038;-81
2022/05/15 00:27:07;;;;;;;0.00;0.00;;;7.90;99.90;;;;;;5005857;28;20045;-81
2022/05/15 00:29:33;;;;;;;0.95;0.95;;;7.90;99.90;;;;;;5005935;28;20033;-81
2022/05/15 00:31:59;;;;;;;0.32;0.20;;;7.90;99.90;;;;;;5023935;28;20399;-81
2022/05/15 00:34:25;;;;;;;0.30;0.30;;;7.80;99.90;;;;;;5021819;28;20042;-81
2022/05/15 00:36:50;;;;;;;0.10;0.10;;;7.80;99.90;;;;;;5008091;28;20095;-81
2022/05/15 00:39:17;;;;;;;0.15;0.15;;;7.80;99.90;;;;;;5024572;28;20042;-81
2022/05/15 00:41:43;;;;;;;0.00;0.00;;;7.80;99.90;;;;;;5022325;28;20041;-81
2022/05/15 00:44:10;;;;;;;0.00;0.00;;;8.30;99.90;;;;;;5005465;28;20056;-80
2022/05/15 00:46:39;;;;;;;0.20;0.20;;;7.70;99.90;;;;;;5022361;28;20045;-81
2022/05/15 00:49:08;;;;;;;0.38;0.38;;;7.70;99.90;;;;;;5021994;28;20045;-81
2022/05/15 00:51:53;;;;;;;0.03;0.03;;;7.70;99.90;;;;;;5023188;28;20091;-81
2022/05/15 00:54:35;;;;;;;0.00;0.00;;;7.70;99.90;;;;;;5021210;28;20033;-80
2022/05/15 00:57:18;;;;;;;0.00;0.00;;;7.60;99.90;;;;;;5011708;28;20111;-80
2022/05/15 01:00:10;;;;;;;0.20;0.20;;;7.60;99.90;;;;;;5020511;28;20132;-80
2022/05/15 01:02:41;;;;;;;0.25;0.25;;;7.50;99.90;;;;;;5021149;28;20083;-80
2022/05/15 01:05:12;;;;;;;0.00;0.00;;;7.50;99.90;;;;;;5019625;28;20590;-80
2022/05/15 01:07:37;;;;;;;0.10;0.10;;;7.50;99.90;;;;;;5038577;28;20070;-80
2022/05/15 01:10:05;;;;;;;0.10;0.10;;;7.50;99.90;;;;;;5021284;28;20034;-81
2022/05/15 01:12:33;;;;;;;0.10;0.10;;;7.50;99.90;;;;;;5002052;28;20124;-80
2022/05/15 01:14:59;;;;;;;0.15;0.15;;;7.80;99.90;;;;;;5004854;28;20037;-81
2022/05/15 01:17:25;;;;;;;0.13;0.13;;;7.60;99.90;;;;;;5021805;28;20322;-81
2022/05/15 01:20:05;;;;;;;0.10;0.10;;;7.50;99.90;;;;;;5017664;28;20091;-81
2022/05/15 01:22:31;;;;;;;0.43;0.38;;;7.60;99.90;;;;;;5004661;28;20055;-81
2022/05/15 01:24:57;;;;;;;1.10;1.08;;;7.40;99.90;;;;;;4992735;28;20061;-81
2022/05/15 01:27:23;;;;;;;0.13;0.13;;;7.40;99.90;;;;;;5020804;28;20131;-79
2022/05/15 01:29:49;;;;;;;0.38;0.38;;;7.40;99.90;;;;;;5005162;28;20057;-79
2022/05/15 01:32:16;;;;;;;0.52;0.45;;;7.80;99.90;;;;;;5006069;28;20120;-79
2022/05/15 01:34:41;;;;;;;0.10;0.10;;;7.40;99.90;;;;;;5018387;28;20033;-79
2022/05/15 01:37:08;;;;;;;0.17;0.17;;;7.70;99.90;;;;;;4989337;28;20834;-79
2022/05/15 01:39:35;;;;;;;0.28;0.28;;;7.30;99.90;;;;;;5006837;28;20479;-79
2022/05/15 01:42:02;;;;;;;0.47;0.38;;;7.30;99.90;;;;;;5001310;28;20048;-80
2022/05/15 01:44:28;;;;;;;0.00;0.00;;;7.20;99.90;;;;;;5023099;28;20041;-81
2022/05/15 01:46:54;;;;;;;0.00;0.00;;;7.30;99.90;;;;;;5020570;28;20438;-81
2022/05/15 01:49:20;;;;;;;0.10;0.10;;;7.30;99.90;;;;;;5010139;28;20091;-81
2022/05/15 01:51:47;;;;;;;0.32;0.30;;;7.20;99.90;;;;;;5024764;28;20438;-81
2022/05/15 01:54:13;;;;;;;0.10;0.10;;;7.20;99.90;;;;;;5006951;28;20049;-81
2022/05/15 01:56:40;;;;;;;0.00;0.00;;;7.10;99.90;;;;;;5023726;28;20487;-81
2022/05/15 01:59:07;;;;;;;0.65;0.52;;;7.10;99.90;;;;;;5023636;28;21732;-79
2022/05/15 02:01:33;;;;;;;0.08;0.08;;;7.30;99.90;;;;;;5021333;28;20041;-79
2022/05/15 02:03:59;;;;;;;0.10;0.10;;;7.20;99.90;;;;;;4986773;28;20037;-79
2022/05/15 02:06:25;;;;;;;0.75;0.57;;;7.00;99.90;;;;;;5019557;28;20101;-79
2022/05/15 02:08:51;;;;;;;0.75;0.60;;;7.10;99.90;;;;;;5006099;28;20049;-79
2022/05/15 02:11:17;;;;;;;0.30;0.30;;;7.20;99.90;;;;;;5005374;28;20394;-79
2022/05/15 02:13:42;;;;;;;0.52;0.50;;;7.00;99.90;;;;;;5018333;28;20056;-79
2022/05/15 02:16:08;;;;;;;0.25;0.25;;;7.00;99.90;;;;;;5023520;28;20541;-82
2022/05/15 02:18:34;;;;;;;0.43;0.30;;;7.00;99.90;;;;;;5005306;28;20542;-82
2022/05/15 02:21:00;;;;;;;0.05;0.05;;;7.00;99.90;;;;;;5006343;28;20107;-82
2022/05/15 02:23:28;;;;;;;0.20;0.20;;;7.00;99.90;;;;;;5020838;28;20690;-82
2022/05/15 02:25:55;;;;;;;0.15;0.15;;;6.90;99.90;;;;;;5007367;28;20033;-82
2022/05/15 02:28:21;;;;;;;0.00;0.00;;;6.90;99.90;;;;;;5023346;28;20160;-82
2022/05/15 02:30:50;;;;;;;0.20;0.20;;;6.90;99.90;;;;;;5004698;28;20048;-82
2022/05/15 02:33:17;;;;;;;0.00;0.00;;;6.90;99.90;;;;;;5021734;28;20468;-82
2022/05/15 02:35:43;;;;;;;0.15;0.15;;;6.80;99.90;;;;;;5021862;28;20458;-82
2022/05/15 02:38:09;;;;;;;0.38;0.30;;;6.80;99.90;;;;;;5006550;28;20045;-82
2022/05/15 02:40:35;;;;;;;5.07;0.32;;;6.80;99.90;;;;;;5005328;28;21558;-82
2022/05/15 02:43:01;;;;;;;0.20;0.20;;;6.70;99.90;;;;;;5005926;28;20037;-82
2022/05/15 02:45:27;;;;;;;0.25;0.25;;;6.70;99.90;;;;;;5024006;28;20349;-82
2022/05/15 02:47:53;;;;;;;0.00;0.00;;;6.70;99.90;;;;;;5008746;28;20082;-82
2022/05/15 02:53:05;;;;;;;0.00;0.00;;;6.90;99.90;;;;;;5013827;28;20042;-80
2022/05/15 02:55:31;;;;;;;0.00;0.00;;;6.70;99.90;;;;;;5036039;28;20084;-80
2022/05/15 02:57:56;;;;;;;0.40;0.40;;;7.00;99.90;;;;;;5018911;28;20045;-80
2022/05/15 03:00:26;;;;;;;0.10;0.10;;;6.70;99.90;;;;;;5002770;28;20113;-80
2022/05/15 03:02:52;;;;;;;0.03;0.03;;;6.70;99.90;;;;;;5004498;28;20770;-80
2022/05/15 03:05:20;;;;;;;0.10;0.10;;;6.70;99.90;;;;;;5020141;28;20053;-82
2022/05/15 03:07:46;;;;;;;0.10;0.10;;;6.70;99.90;;;;;;5020869;28;20045;-82
2022/05/15 03:10:15;;;;;;;0.08;0.08;;;6.90;99.90;;;;;;5021892;28;20050;-82
2022/05/15 03:12:41;;;;;;;4.00;0.93;;;6.70;99.90;;;;;;5023419;28;20057;-82
2022/05/15 03:15:08;;;;;;;0.75;0.43;;;6.70;99.90;;;;;;5022699;28;20091;-82
2022/05/15 03:17:35;;;;;;;0.10;0.10;;;6.70;99.90;;;;;;5020693;28;20135;-82
2022/05/15 03:20:03;;;;;;;0.00;0.00;;;6.70;99.90;;;;;;5018272;22;20100;-80
2022/05/15 03:22:28;;;;;;;0.00;0.00;;;6.70;99.90;;;;;;5019602;28;20045;-79
2022/05/15 03:24:54;;;;;;;0.20;0.20;;;6.70;99.90;;;;;;5005181;28;20037;-79
2022/05/15 03:27:20;;;;;;;0.10;0.10;;;6.70;99.90;;;;;;5007287;28;20038;-79
2022/05/15 03:29:45;;;;;;;0.00;0.00;;;6.70;99.90;;;;;;4990825;28;20395;-79
2022/05/15 03:32:11;;;;;;;0.00;0.00;;;6.60;99.90;;;;;;4971599;28;20128;-79
2022/05/15 03:34:37;;;;;;;0.10;0.10;;;6.60;99.90;;;;;;5005791;28;20053;-79
2022/05/15 03:37:03;;;;;;;0.88;0.80;;;7.30;99.90;;;;;;4992156;28;20116;-79
2022/05/15 03:39:28;;;;;;;0.00;0.00;;;6.60;99.90;;;;;;4977901;28;20042;-82
2022/05/15 03:41:54;;;;;;;0.38;0.25;;;6.60;99.90;;;;;;5007897;28;20042;-82
2022/05/15 03:44:20;;;;;;;0.57;0.40;;;6.60;99.90;;;;;;5008780;28;20084;-82
2022/05/15 03:46:46;;;;;;;0.63;0.63;;;6.60;99.90;;;;;;4987879;28;20084;-82
2022/05/15 03:49:13;;;;;;;0.93;0.60;;;6.70;99.90;;;;;;5021710;28;20034;-82
2022/05/15 03:51:40;;;;;;;0.00;0.00;;;6.60;99.90;;;;;;5005205;28;20756;-82
2022/05/15 03:54:06;;;;;;;0.22;0.22;;;6.60;99.90;;;;;;5005350;28;20040;-82
2022/05/15 03:56:50;;;;;;;0.20;0.20;;;6.80;99.90;;;;;;5006854;28;20483;-79
2022/05/15 03:59:19;;;;;;;9.90;1.00;;;6.60;99.90;;;;;;4992661;28;20037;-79
2022/05/15 04:01:45;;;;;;;0.10;0.10;;;6.60;99.90;;;;;;4988141;28;20038;-79
2022/05/15 04:04:10;;;;;;;0.08;0.08;;;6.60;99.90;;;;;;4973383;28;20042;-79
2022/05/15 04:06:36;;;;;;;0.00;0.00;;;6.60;99.90;;;;;;4978849;28;20041;-79
2022/05/15 04:09:03;;;;;;;0.17;0.17;;;6.70;99.90;;;;;;4993522;28;20034;-79
2022/05/15 04:11:29;;;;;;;0.00;0.00;;;6.70;99.90;;;;;;5008851;28;20121;-79
2022/05/15 04:13:54;;;;;;;0.00;0.00;;;6.70;99.90;;;;;;4988177;28;20172;-80
2022/05/15 04:16:20;;;;;;;0.10;0.10;;;6.80;99.90;;;;;;4986939;28;21305;-80
2022/05/15 04:18:46;;;;;;;0.35;0.20;;;6.80;99.90;;;;;;5007816;28;20535;-80
2022/05/15 04:21:12;;;;;;;0.00;0.00;;;6.90;99.90;;;;;;4956440;28;20530;-80
2022/05/15 04:23:38;;;;;;;0.35;0.20;;;6.90;99.90;;;;;;4990138;28;20485;-80
2022/05/15 04:26:04;;;;;;;0.30;0.30;;;6.90;99.90;;;;;;5007131;28;20491;-80
2022/05/15 04:28:30;;;;;;;0.00;0.00;;;7.00;99.90;;;;;;5005054;28;20064;-81
2022/05/15 04:30:55;;;;;;;0.20;0.20;;;7.00;99.90;;;;;;5009147;28;20046;-82
2022/05/15 04:33:21;;;;;;;0.10;0.10;;;7.10;99.90;;;;;;5006602;28;20736;-82
2022/05/15 04:35:47;;;;;;;0.13;0.13;;;7.20;99.90;;;;;;4970767;28;20050;-82
2022/05/15 04:38:12;;;;;;;0.25;0.25;;;7.40;99.90;;;;;;5006983;28;20045;-82
2022/05/15 04:40:38;;;;;;;0.45;0.40;;;7.40;99.90;;;;;;4990672;28;20046;-82
2022/05/15 04:43:04;;;;;;;1.55;0.65;;;7.50;99.90;;;;;;4972765;28;20045;-82
2022/05/15 04:45:30;;;;;;;0.00;0.00;;;7.60;99.90;;;;;;4992814;28;20045;-79
2022/05/15 04:47:56;;;;;;;0.10;0.10;;;7.90;99.90;;;;;;4989687;28;20104;-79
2022/05/15 04:50:22;;;;;;;0.65;0.65;;;7.80;99.90;;;;;;4990721;28;20065;-79
2022/05/15 04:52:48;;;;;;;0.75;0.73;;;7.90;99.90;;;;;;5004438;28;20045;-79
2022/05/15 04:55:15;;;;;;;0.28;0.28;;;8.00;99.90;;;;;;4990183;28;21926;-79
2022/05/15 04:57:41;;;;;;;0.10;0.10;;;8.00;99.90;;;;;;4988762;28;20084;-79
2022/05/15 05:00:12;;;;;;;0.00;0.00;;;8.20;99.90;;;;;;4985672;28;20038;-79
2022/05/15 05:02:38;;;;;;;0.30;0.30;;;8.30;99.90;;;;;;4990203;28;21407;-79
2022/05/15 05:05:04;;;;;;;0.05;0.05;;;8.50;99.90;;;;;;5007772;28;20041;-79
2022/05/15 05:07:30;;;;;;;0.65;0.65;;;8.70;99.90;;;;;;5007853;28;20042;-79
2022/05/15 05:09:56;;;;;;;0.52;0.52;;;8.90;99.90;;;;;;5006539;28;20046;-79
2022/05/15 05:12:23;;;;;;;0.28;0.28;;;9.00;99.90;;;;;;5005961;28;20396;-79
2022/05/15 05:14:49;;;;;;;0.50;0.50;;;9.10;99.90;;;;;;4988368;28;20030;-79
2022/05/15 05:17:15;;;;;;;0.00;0.00;;;9.70;99.90;;;;;;5007543;28;20060;-79
2022/05/15 05:19:41;;;;;;;0.15;0.15;;;9.50;99.90;;;;;;4989004;28;20053;-80
2022/05/15 05:22:07;;;;;;;0.28;0.28;;;9.90;99.90;;;;;;4990272;28;20045;-80
2022/05/15 05:24:33;;;;;;;0.10;0.10;;;10.40;99.90;;;;;;5007373;28;20045;-80
2022/05/15 05:26:59;;;;;;;0.22;0.22;;;10.70;99.90;;;;;;4990912;28;20042;-80
2022/05/15 05:29:25;;;;;;;2.08;0.63;;;11.10;99.90;;;;;;5007089;28;20447;-80
2022/05/15 05:31:51;;;;;;;2.05;1.45;;;11.50;99.90;;;;;;5008070;28;20042;-80
2022/05/15 05:34:17;;;;;;;0.00;0.00;;;12.00;99.90;;;;;;4980134;28;20061;-80
2022/05/15 05:36:43;;;;;;;0.00;0.00;;;12.30;99.90;;;;;;4990863;28;20132;-80
2022/05/15 05:39:08;;;;;;;0.00;0.00;;;12.60;99.90;;;;;;5005251;28;20070;-80
2022/05/15 05:41:34;;;;;;;0.75;0.20;;;12.90;99.90;;;;;;5006604;28;20045;-80
2022/05/15 05:44:00;;;;;;;0.15;0.15;;;13.30;99.90;;;;;;5007156;28;20042;-80
2022/05/15 05:46:27;;;;;;;0.10;0.10;;;13.60;99.90;;;;;;4972666;28;20049;-80
2022/05/15 05:48:54;;;;;;;0.10;0.10;;;14.00;99.90;;;;;;4987661;28;20510;-80
2022/05/15 05:51:21;;;;;;;0.17;0.17;;;14.30;99.90;;;;;;5003426;28;21285;-80
2022/05/15 05:53:47;;;;;;;0.10;0.10;;;14.60;99.90;;;;;;5003749;28;20099;-80
2022/05/15 05:56:13;;;;;;;0.10;0.10;;;14.90;99.90;;;;;;5004313;28;20056;-80
2022/05/15 05:58:39;;;;;;;0.15;0.10;;;15.20;99.90;;;;;;5007795;28;20480;-80
2022/05/15 06:01:04;;;;;;;0.55;0.43;;;15.60;99.90;;;;;;4989405;28;20038;-80
2022/05/15 06:06:15;;;;;;;0.10;0.10;;;16.00;99.90;;;;;;5010219;28;20068;-80
2022/05/15 06:08:42;;;;;;;0.25;0.25;;;16.40;99.90;;;;;;5004034;28;20056;-80
2022/05/15 06:11:09;;;;;;;2.20;1.17;;;16.60;99.90;;;;;;5000225;28;20662;-80
2022/05/15 06:13:35;;;;;;;1.30;1.20;;;16.90;99.90;;;;;;5002062;28;20045;-80
2022/05/15 06:16:01;;;;;;;0.10;0.10;;;17.00;99.90;;;;;;5018284;28;20030;-80
2022/05/15 06:18:27;;;;;;;0.43;0.35;;;17.50;99.90;;;;;;5002947;28;20038;-80
2022/05/15 06:20:53;;;;;;;0.25;0.25;;;17.80;99.90;;;;;;4988652;28;20056;-80
2022/05/15 06:23:19;;;;;;;0.70;0.70;;;17.90;99.90;;;;;;4989944;28;20038;-80
2022/05/15 06:25:45;;;;;;;0.50;0.40;;;18.40;99.90;;;;;;4990373;28;20438;-81
2022/05/15 06:28:11;;;;;;;0.10;0.10;;;18.70;99.90;;;;;;5010312;28;20042;-81
2022/05/15 06:30:37;;;;;;;4.65;4.28;;;19.00;99.90;;;;;;5010375;28;20037;-81
2022/05/15 06:33:07;;;;;;;0.22;0.22;;;18.50;99.90;;;;;;5008572;28;20469;-81
2022/05/15 06:35:33;;;;;;;0.28;0.28;;;19.10;99.90;;;;;;5004248;28;20133;-81
2022/05/15 06:38:06;;;;;;;0.98;0.52;;;19.50;99.90;;;;;;4990654;28;20030;-81
2022/05/15 06:40:33;;;;;;;0.88;0.82;;;19.00;99.90;;;;;;4987965;28;20865;-81
2022/05/15 06:42:59;;;;;;;0.63;0.63;;;19.00;99.90;;;;;;5001868;28;20077;-82
2022/05/15 06:45:26;;;;;;;0.00;0.00;;;19.40;99.90;;;;;;5005922;28;20192;-82
2022/05/15 06:47:52;;;;;;;0.20;0.20;;;19.70;99.90;;;;;;4984944;28;20069;-83
2022/05/15 06:50:18;;;;;;;2.92;1.65;;;20.40;99.90;;;;;;5002367;28;20740;-82
2022/05/15 06:52:44;;;;;;;0.50;0.50;;;20.70;99.70;;;;;;4990065;28;21265;-82
2022/05/15 06:55:16;;;;;;;0.10;0.10;;;21.20;99.60;;;;;;5004651;28;20037;-83
2022/05/15 06:57:43;;;;;;;0.63;0.52;;;21.60;99.00;;;;;;5004343;28;20133;-83
2022/05/15 07:00:11;;;;;;;4.88;1.10;;;22.20;97.80;;;;;;5019454;28;20446;-80
2022/05/15 07:02:37;;;;;;;0.73;0.73;;;21.90;95.70;;;;;;5005685;28;20438;-80
2022/05/15 07:05:04;;;;;;;0.40;0.40;;;21.90;96.10;;;;;;4972439;28;20030;-80
2022/05/15 07:07:30;;;;;;;0.15;0.15;;;22.30;96.50;;;;;;5005955;28;20058;-81
2022/05/15 07:09:56;;;;;;;0.20;0.20;;;22.80;94.10;;;;;;5006259;28;20041;-81
2022/05/15 07:12:24;;;;;;;0.20;0.20;;;23.10;94.60;;;;;;5005374;28;20562;-81
2022/05/15 07:14:50;;;;;;;0.52;0.40;;;23.20;92.80;;;;;;5006191;28;20527;-80
2022/05/15 07:17:15;;;;;;;1.75;1.42;;;23.60;92.20;;;;;;4990265;28;20441;-83
2022/05/15 07:19:41;;;;;;;0.10;0.10;;;23.40;93.70;;;;;;5003556;28;20053;-83
2022/05/15 07:22:07;;;;;;;0.57;0.35;;;23.40;90.40;;;;;;5006541;28;20141;-82
2022/05/15 07:24:33;;;;;;;1.75;0.50;;;23.60;91.50;;;;;;4997934;28;20037;-82
2022/05/15 07:26:59;;;;;;;0.08;0.08;;;23.80;92.10;;;;;;5013893;28;20065;-82
2022/05/15 07:29:25;;;;;;;1.70;0.95;;;24.30;90.30;;;;;;4979422;28;20579;-82
2022/05/15 07:31:53;;;;;;;0.30;0.30;;;24.60;87.40;;;;;;5007451;28;20060;-83
2022/05/15 07:34:19;;;;;;;0.75;0.75;;;25.00;89.20;;;;;;5007330;28;20042;-84
2022/05/15 07:36:50;;;;;;;0.85;0.63;;;25.40;87.70;;;;;;5009129;28;20498;-84
2022/05/15 07:39:17;;;;;;;0.40;0.40;;;25.70;81.60;;;;;;4991281;28;20053;-84
2022/05/15 07:41:42;;;;;;;1.35;1.05;;;24.70;84.50;;;;;;5004887;28;20049;-82
2022/05/15 07:44:08;;;;;;;0.22;0.10;;;25.70;85.10;;;;;;4991792;28;20057;-82
2022/05/15 07:46:34;;;;;;;0.22;0.10;;;26.10;80.20;;;;;;5006209;28;20089;-82
2022/05/15 07:49:00;;;;;;;0.10;0.10;;;26.40;79.30;;;;;;4992740;28;20044;-83
2022/05/15 07:51:25;;;;;;;0.82;0.82;;;26.80;77.80;;;;;;5007905;28;20050;-82
2022/05/15 07:53:51;;;;;;;1.25;1.15;;;26.70;76.50;;;;;;5005195;28;20072;-82
2022/05/15 07:56:17;;;;;;;1.15;1.00;;;26.60;74.20;;;;;;5005374;28;20191;-82
2022/05/15 07:58:43;;;;;;;0.45;0.45;;;26.40;76.00;;;;;;5005836;28;20551;-83
2022/05/15 08:01:09;;;;;;;2.40;0.93;;;27.10;74.10;;;;;;5006008;28;20080;-85
2022/05/15 08:03:43;;;;;;;0.20;0.20;;;27.30;72.90;;;;;;5006465;28;20947;-82
2022/05/15 08:08:56;;;;;;;0.68;0.57;;;26.90;72.90;;;;;;5004083;28;20460;-82
2022/05/15 08:11:26;;;;;;;0.45;0.45;;;27.70;71.60;;;;;;4983049;28;20033;-81
2022/05/15 08:13:52;;;;;;;0.28;0.28;;;27.70;68.90;;;;;;5008436;28;20052;-81
2022/05/15 08:16:18;;;;;;;0.73;0.40;;;28.10;70.50;;;;;;5001162;28;20041;-81
2022/05/15 08:24:14;;;;;;;0.55;0.55;;;28.50;65.50;;;;;;5013835;28;20476;-82
2022/05/15 08:26:40;;;;;;;7.82;2.38;;;28.50;64.50;;;;;;4978663;28;20042;-83
2022/05/15 08:29:07;;;;;;;0.43;0.43;;;28.00;64.50;;;;;;5014186;28;20046;-83
2022/05/15 08:31:33;;;;;;;1.42;0.77;;;28.50;62.00;;;;;;5013934;28;20091;-82
2022/05/15 08:33:59;;;;;;;1.10;0.70;;;28.30;62.10;;;;;;4998274;28;20037;-82
2022/05/15 08:36:24;;;;;;;0.73;0.43;;;28.10;63.80;;;;;;4997276;28;20062;-82
2022/05/15 08:38:51;;;;;;;0.20;0.20;;;28.20;63.60;;;;;;5013865;28;20037;-81
2022/05/15 08:41:21;;;;;;;1.02;0.98;;;28.80;63.20;;;;;;5013879;28;20045;-81
2022/05/15 08:43:58;;;;;;;1.55;1.10;;;29.00;61.00;;;;;;5013808;28;20480;-81
2022/05/15 08:46:35;;;;;;;0.10;0.10;;;29.00;59.30;;;;;;5010177;28;20034;-81
2022/05/15 08:49:27;;;;;;;0.13;0.13;;;28.70;60.50;;;;;;5012302;28;20100;-81
2022/05/15 08:52:20;;;;;;;0.32;0.32;;;28.80;59.30;;;;;;5013714;28;20180;-81
2022/05/15 08:55:04;;;;;;;0.30;0.30;;;28.60;60.50;;;;;;5013735;28;20038;-81
2022/05/15 08:57:40;;;;;;;1.25;1.00;;;29.00;60.20;;;;;;5013154;28;20037;-83
2022/05/15 09:00:11;;;;;;;1.35;0.73;;;27.70;59.00;;;;;;5013230;28;20084;-84
2022/05/15 09:02:42;;;;;;;1.15;1.05;;;28.00;62.70;;;;;;5013757;28;20108;-84
2022/05/15 09:05:09;;;;;;;0.45;0.45;;;28.00;62.90;;;;;;4996742;28;20172;-83
2022/05/15 09:07:57;;;;;;;1.73;1.63;;;27.70;60.90;;;;;;4993820;28;20046;-84
2022/05/15 09:10:36;;;;;;;1.02;0.98;;;28.60;60.60;;;;;;5010376;28;20066;-84
2022/05/15 09:13:21;;;;;;;0.68;0.68;;;28.60;60.00;;;;;;5001243;28;20038;-81
2022/05/15 09:15:59;;;;;;;0.55;0.38;;;29.10;58.90;;;;;;4997183;28;20377;-81
2022/05/15 09:18:27;;;;;;;0.30;0.30;;;29.10;58.80;;;;;;5029476;28;20041;-81
2022/05/15 09:20:52;;;;;;;1.17;0.52;;;30.00;57.30;;;;;;5013702;28;20082;-81
2022/05/15 09:23:26;;;;;;;0.20;0.20;;;30.70;58.00;;;;;;5012709;28;20499;-81
2022/05/15 09:25:55;;;;;;;0.93;0.73;;;30.60;56.40;;;;;;5012398;28;20049;-81
2022/05/15 09:28:23;;;;;;;2.00;1.08;;;31.00;56.40;;;;;;4993055;28;20057;-81
2022/05/15 09:30:50;;;;;;;0.13;0.13;;;31.00;54.50;;;;;;5007257;28;20121;-81
2022/05/15 09:33:28;;;;;;;1.00;1.00;;;31.30;54.40;;;;;;5013169;28;20084;-82
2022/05/15 09:36:30;;;;;;;0.32;0.32;;;31.50;55.30;;;;;;5011853;28;20070;-81
2022/05/15 09:39:18;;;;;;;1.40;1.30;;;31.80;54.20;;;;;;4988901;28;20064;-81
2022/05/15 09:44:41;;;;;;;0.93;0.40;;;31.90;54.80;;;;;;5027776;28;20046;-82
2022/05/15 09:47:18;;;;;;;0.30;0.30;;;30.60;52.80;;;;;;4979905;28;20042;-81
2022/05/15 09:49:45;;;;;;;0.20;0.20;;;30.40;56.70;;;;;;5012532;28;20183;-81
2022/05/15 09:52:24;;;;;;;1.25;1.15;;;30.40;55.50;;;;;;4995590;28;20076;-81
2022/05/15 09:54:50;;;;;;;0.20;0.20;;;30.10;55.80;;;;;;5008677;28;20038;-81
2022/05/15 09:57:24;;;;;;;0.52;0.52;;;30.20;54.70;;;;;;5012463;28;20025;-81
2022/05/15 09:59:59;;;;;;;0.05;0.05;;;30.50;54.60;;;;;;4996213;28;20053;-81
2022/05/15 10:02:48;;;;;;;0.65;0.65;;;30.70;54.60;;;;;;5012729;28;20045;-81
2022/05/15 10:05:14;;;;;;;0.57;0.57;;;31.40;54.80;;;;;;5007342;28;20117;-81
2022/05/15 10:07:44;;;;;;;0.95;0.40;;;31.60;53.50;;;;;;5012083;28;20073;-81
2022/05/15 10:10:28;;;;;;;0.10;0.10;;;32.20;54.30;;;;;;4980493;28;20038;-81
2022/05/15 10:13:03;;;;;;;0.45;0.45;;;32.80;53.30;;;;;;5012194;28;20438;-81
2022/05/15 10:15:36;;;;;;;0.20;0.20;;;33.20;54.50;;;;;;4994414;28;20057;-81
2022/05/15 10:18:03;;;;;;;0.65;0.65;;;33.30;54.90;;;;;;5012136;28;20041;-81
2022/05/15 10:20:34;;;;;;;0.20;0.20;;;33.30;50.90;;;;;;5011941;28;20057;-81
2022/05/15 10:23:00;;;;;;;0.32;0.20;;;33.30;52.10;;;;;;5012336;28;20052;-81
2022/05/15 10:25:38;;;;;;;0.25;0.25;;;32.90;52.60;;;;;;5012247;28;20042;-81
2022/05/15 10:28:23;;;;;;;2.95;1.00;;;32.60;53.30;;;;;;4994431;28;20049;-81
2022/05/15 10:31:39;;;;;;;0.10;0.10;;;31.80;51.40;;;;;;4991137;28;20052;-81
2022/05/15 10:34:12;;;;;;;0.63;0.63;;;32.30;51.30;;;;;;4991760;28;20503;-81
2022/05/15 10:36:37;;;;;;;0.15;0.15;;;32.20;51.10;;;;;;5011858;28;20030;-81
2022/05/15 10:39:06;;;;;;;1.17;0.70;;;32.40;51.50;;;;;;4995521;28;20041;-82
2022/05/15 10:41:34;;;;;;;0.75;0.75;;;32.50;50.40;;;;;;5012223;28;20094;-82
2022/05/15 10:44:34;;;;;;;0.20;0.20;;;32.60;52.90;;;;;;4995852;28;20124;-82
2022/05/15 10:47:15;;;;;;;0.13;0.13;;;33.10;51.10;;;;;;4996393;28;20117;-82
2022/05/15 10:49:56;;;;;;;0.40;0.40;;;33.60;50.10;;;;;;5011798;28;20033;-82
2022/05/15 10:52:52;;;;;;;0.40;0.40;;;32.50;48.80;;;;;;5010907;28;20054;-83
2022/05/15 10:58:25;;;;;;;0.57;0.57;;;33.70;49.90;;;;;;4990132;28;20374;-83
2022/05/15 11:01:21;;;;;;;0.90;0.77;;;33.40;51.50;;;;;;5011915;28;20050;-83
2022/05/15 11:04:19;;;;;;;1.33;1.23;;;33.60;50.80;;;;;;5011392;28;20065;-83
2022/05/15 11:07:00;;;;;;;0.47;0.47;;;33.20;49.60;;;;;;5011208;28;20041;-83
2022/05/15 11:09:52;;;;;;;0.28;0.28;;;33.10;49.10;;;;;;5011731;28;20034;-83
2022/05/15 11:12:42;;;;;;;0.38;0.38;;;33.20;48.00;;;;;;5011493;28;20038;-83
2022/05/15 11:15:37;;;;;;;0.40;0.40;;;33.70;49.10;;;;;;5011055;28;20038;-83
2022/05/15 11:18:45;;;;;;;0.77;0.55;;;33.90;48.50;;;;;;5011400;28;20034;-83
2022/05/15 11:21:18;;;;;;;1.02;0.90;;;33.60;49.00;;;;;;4955535;28;20129;-83
2022/05/15 11:23:54;;;;;;;0.20;0.20;;;33.20;47.60;;;;;;5005320;28;20106;-84
2022/05/15 11:26:20;;;;;;;0.25;0.25;;;33.00;49.50;;;;;;5011626;28;20050;-84
2022/05/15 11:28:54;;;;;;;0.13;0.13;;;33.10;49.00;;;;;;5010843;28;20046;-84
2022/05/15 11:31:24;;;;;;;0.30;0.30;;;33.00;48.80;;;;;;5011399;28;20655;-84
2022/05/15 11:34:02;;;;;;;0.30;0.30;;;32.90;49.60;;;;;;4991916;28;20034;-84
2022/05/15 11:36:43;;;;;;;1.20;0.30;;;32.60;48.10;;;;;;5009908;28;20542;-84
2022/05/15 11:39:14;;;;;;;0.10;0.10;;;32.20;52.50;;;;;;5010510;28;20046;-84
2022/05/15 11:41:43;;;;;;;0.38;0.32;;;31.90;50.10;;;;;;5011268;28;20060;-84
2022/05/15 11:44:18;;;;;;;1.17;0.63;;;30.60;51.70;;;;;;5011836;28;20129;-81
2022/05/15 11:46:50;;;;;;;1.08;0.85;;;30.60;51.30;;;;;;5014041;28;20076;-81
2022/05/15 11:49:24;;;;;;;0.30;0.30;;;30.50;52.50;;;;;;4998482;28;20038;-81
2022/05/15 11:52:12;;;;;;;0.05;0.05;;;30.90;53.60;;;;;;5014085;28;20045;-83
2022/05/15 11:54:49;;;;;;;0.40;0.40;;;31.20;51.50;;;;;;5015049;28;20145;-81
2022/05/15 11:57:47;;;;;;;0.70;0.30;;;31.30;50.10;;;;;;5031334;28;20416;-81
2022/05/15 12:00:31;;;;;;;4.90;0.95;;;31.10;50.40;;;;;;5014510;28;20045;-81
2022/05/15 12:02:58;;;;;;;0.10;0.10;;;31.20;53.30;;;;;;5014575;28;20053;-81
2022/05/15 12:05:38;;;;;;;0.38;0.38;;;30.90;52.40;;;;;;5012514;28;20034;-81
2022/05/15 12:08:28;;;;;;;0.10;0.10;;;30.80;51.10;;;;;;4994983;28;20042;-81
2022/05/15 12:10:57;;;;;;;0.80;0.80;;;30.40;51.30;;;;;;5013808;28;20042;-81
2022/05/15 12:13:31;;;;;;;2.00;1.27;;;30.10;53.60;;;;;;5014163;28;20128;-81
2022/05/15 12:16:23;;;;;;;0.32;0.32;;;30.30;55.10;;;;;;5014370;28;20038;-84
2022/05/15 12:19:03;;;;;;;0.55;0.55;;;30.30;55.40;;;;;;4995366;28;20130;-84
2022/05/15 12:21:46;;;;;;;0.25;0.17;;;30.20;54.30;;;;;;5013493;28;20546;-84
2022/05/15 12:24:27;;;;;;;1.00;0.85;;;30.20;53.50;;;;;;5014152;28;20103;-84
2022/05/15 12:27:08;;;;;;;0.55;0.40;;;30.00;55.90;;;;;;4997669;28;20045;-83
2022/05/15 12:29:58;;;;;;;0.10;0.10;;;29.10;52.80;;;;;;5011875;28;20052;-84
2022/05/15 12:32:34;;;;;;;4.40;1.05;;;28.10;54.80;;;;;;5021138;28;20046;-81
2022/05/15 12:35:00;;;;;;;0.17;0.17;;;27.70;56.70;;;;;;4997535;28;20112;-81
2022/05/15 12:37:34;;;;;;;0.08;0.08;;;27.60;58.80;;;;;;4997586;28;20041;-81
2022/05/15 12:40:02;;;;;;;3.40;1.45;;;27.40;55.50;;;;;;5013974;28;20041;-81
2022/05/15 12:42:33;;;;;;;0.95;0.95;;;27.30;57.00;;;;;;4988706;28;20034;-81
2022/05/15 12:45:10;;;;;;;0.08;0.08;;;27.40;58.10;;;;;;5021034;28;20037;-82
2022/05/15 12:47:36;;;;;;;0.20;0.20;;;27.50;57.50;;;;;;5013699;28;20076;-81
2022/05/15 12:50:22;;;;;;;0.57;0.55;;;27.20;55.80;;;;;;5013848;28;20038;-81
2022/05/15 12:52:53;;;;;;;0.55;0.55;;;27.00;58.90;;;;;;5013231;28;20081;-81
2022/05/15 12:55:35;;;;;;;0.00;0.00;;;27.00;57.40;;;;;;4997060;28;20449;-81
2022/05/15 12:58:05;;;;;;;1.80;1.02;;;27.10;59.30;;;;;;5012548;28;20042;-81
2022/05/15 13:00:41;;;;;;;1.80;0.40;;;27.10;60.30;;;;;;5013907;28;20120;-81
2022/05/15 13:03:11;;;;;;;0.68;0.68;;;27.30;59.70;;;;;;5013779;28;20042;-81
2022/05/15 13:05:54;;;;;;;0.32;0.22;;;27.50;57.80;;;;;;5012774;28;20033;-83
2022/05/15 13:08:20;;;;;;;0.57;0.57;;;27.00;56.10;;;;;;5012997;28;20525;-84
2022/05/15 13:11:01;;;;;;;0.70;0.38;;;26.90;57.40;;;;;;5013400;28;20030;-83
2022/05/15 13:13:39;;;;;;;0.25;0.25;;;27.00;58.80;;;;;;5013223;28;20544;-83
2022/05/15 13:16:14;;;;;;;0.20;0.20;;;26.90;57.20;;;;;;5010545;28;20044;-83
2022/05/15 13:18:44;;;;;;;0.43;0.43;;;27.00;60.10;;;;;;5012043;28;20049;-83
2022/05/15 13:21:10;;;;;;;0.82;0.82;;;26.70;58.60;;;;;;5013268;28;20053;-84
2022/05/15 13:23:44;;;;;;;0.03;0.03;;;26.70;56.50;;;;;;4980728;28;20041;-83
2022/05/15 13:26:16;;;;;;;0.00;0.00;;;26.70;57.30;;;;;;5013773;28;20041;-83
2022/05/15 13:28:43;;;;;;;0.43;0.43;;;26.80;56.60;;;;;;5014963;28;20034;-83